sensor_id;sensor_type;location;lat;lon;timestamp;pressure;altitude;pressure_sealevel;temperature;humidity
86547;BME280;77188;50.862;5.478;2024-03-22T00:00:19;101422.00;;;11.82;79.08
86547;BME280;77188;50.862;5.478;2024-03-22T00:01:23;101424.95;;;11.81;79.04
86547;BME280;77188;50.862;5.478;2024-03-22T00:02:27;101422.44;;;11.81;78.90
86547;BME280;77188;50.862;5.478;2024-03-22T00:03:31;101423.40;;;11.81;79.14
86547;BME280;77188;50.862;5.478;2024-03-22T00:04:35;101420.34;;;11.82;78.91
86547;BME280;77188;50.862;5.478;2024-03-22T00:05:39;101421.09;;;11.83;79.02
86547;BME280;77188;50.862;5.478;2024-03-22T00:06:44;101414.42;;;11.83;78.94
86547;BME280;77188;50.862;5.478;2024-03-22T00:07:48;101417.27;;;11.84;78.83
86547;BME280;77188;50.862;5.478;2024-03-22T00:08:52;101411.90;;;11.83;78.81
86547;BME280;77188;50.862;5.478;2024-03-22T00:09:56;101411.02;;;11.83;78.67
86547;BME280;77188;50.862;5.478;2024-03-22T00:11:00;101411.91;;;11.81;79.05
86547;BME280;77188;50.862;5.478;2024-03-22T00:12:05;101411.77;;;11.81;78.95
86547;BME280;77188;50.862;5.478;2024-03-22T00:13:10;101413.10;;;11.82;78.92
86547;BME280;77188;50.862;5.478;2024-03-22T00:14:14;101408.07;;;11.81;79.03
86547;BME280;77188;50.862;5.478;2024-03-22T00:15:18;101407.56;;;11.83;78.96
86547;BME280;77188;50.862;5.478;2024-03-22T00:16:22;101409.31;;;11.83;78.77
86547;BME280;77188;50.862;5.478;2024-03-22T00:17:26;101406.95;;;11.83;78.87
86547;BME280;77188;50.862;5.478;2024-03-22T00:18:30;101406.40;;;11.83;78.61
86547;BME280;77188;50.862;5.478;2024-03-22T00:19:34;101409.52;;;11.82;78.78
86547;BME280;77188;50.862;5.478;2024-03-22T00:20:38;101404.85;;;11.81;78.79
86547;BME280;77188;50.862;5.478;2024-03-22T00:21:42;101404.54;;;11.82;78.75
86547;BME280;77188;50.862;5.478;2024-03-22T00:22:46;101402.65;;;11.82;78.74
86547;BME280;77188;50.862;5.478;2024-03-22T00:23:51;101398.42;;;11.82;78.97
86547;BME280;77188;50.862;5.478;2024-03-22T00:24:55;101397.05;;;11.83;78.70
86547;BME280;77188;50.862;5.478;2024-03-22T00:25:59;101396.57;;;11.83;79.04
86547;BME280;77188;50.862;5.478;2024-03-22T00:27:03;101396.67;;;11.83;78.76
86547;BME280;77188;50.862;5.478;2024-03-22T00:28:07;101392.59;;;11.83;78.70
86547;BME280;77188;50.862;5.478;2024-03-22T00:29:11;101393.14;;;11.83;78.74
86547;BME280;77188;50.862;5.478;2024-03-22T00:30:15;101391.62;;;11.83;78.55
86547;BME280;77188;50.862;5.478;2024-03-22T00:31:19;101390.39;;;11.83;78.47
86547;BME280;77188;50.862;5.478;2024-03-22T00:32:24;101388.99;;;11.84;78.55
86547;BME280;77188;50.862;5.478;2024-03-22T00:33:28;101386.33;;;11.84;78.59
86547;BME280;77188;50.862;5.478;2024-03-22T00:34:32;101384.49;;;11.86;78.49
86547;BME280;77188;50.862;5.478;2024-03-22T00:35:36;101379.61;;;11.86;78.48
86547;BME280;77188;50.862;5.478;2024-03-22T00:36:40;101379.00;;;11.86;78.47
86547;BME280;77188;50.862;5.478;2024-03-22T00:37:45;101381.52;;;11.86;78.46
86547;BME280;77188;50.862;5.478;2024-03-22T00:38:49;101378.91;;;11.85;78.57
86547;BME280;77188;50.862;5.478;2024-03-22T00:39:53;101376.23;;;11.85;78.57
86547;BME280;77188;50.862;5.478;2024-03-22T00:40:57;101376.00;;;11.85;78.35
86547;BME280;77188;50.862;5.478;2024-03-22T00:42:02;101374.84;;;11.86;78.47
86547;BME280;77188;50.862;5.478;2024-03-22T00:43:06;101373.61;;;11.87;78.32
86547;BME280;77188;50.862;5.478;2024-03-22T00:44:10;101372.46;;;11.88;78.44
86547;BME280;77188;50.862;5.478;2024-03-22T00:45:15;101372.08;;;11.88;78.39
86547;BME280;77188;50.862;5.478;2024-03-22T00:46:19;101369.04;;;11.89;78.34
86547;BME280;77188;50.862;5.478;2024-03-22T00:47:23;101369.42;;;11.89;78.30
86547;BME280;77188;50.862;5.478;2024-03-22T00:48:27;101368.00;;;11.88;78.35
86547;BME280;77188;50.862;5.478;2024-03-22T00:49:31;101364.75;;;11.87;78.32
86547;BME280;77188;50.862;5.478;2024-03-22T00:50:35;101366.69;;;11.87;78.39
86547;BME280;77188;50.862;5.478;2024-03-22T00:51:39;101357.82;;;11.86;78.23
86547;BME280;77188;50.862;5.478;2024-03-22T00:52:46;101360.52;;;11.88;78.24
86547;BME280;77188;50.862;5.478;2024-03-22T00:53:50;101358.17;;;11.88;78.35
86547;BME280;77188;50.862;5.478;2024-03-22T00:54:54;101359.94;;;11.89;78.33
86547;BME280;77188;50.862;5.478;2024-03-22T00:55:58;101355.70;;;11.89;78.35
86547;BME280;77188;50.862;5.478;2024-03-22T00:57:03;101357.27;;;11.89;78.20
86547;BME280;77188;50.862;5.478;2024-03-22T00:58:07;101356.09;;;11.89;78.19
86547;BME280;77188;50.862;5.478;2024-03-22T00:59:11;101356.80;;;11.89;78.09
86547;BME280;77188;50.862;5.478;2024-03-22T01:00:16;101355.20;;;11.88;78.23
86547;BME280;77188;50.862;5.478;2024-03-22T01:01:20;101357.23;;;11.87;78.27
86547;BME280;77188;50.862;5.478;2024-03-22T01:02:24;101355.80;;;11.88;78.31
86547;BME280;77188;50.862;5.478;2024-03-22T01:03:28;101360.69;;;11.88;78.46
86547;BME280;77188;50.862;5.478;2024-03-22T01:04:32;101358.91;;;11.89;78.27
86547;BME280;77188;50.862;5.478;2024-03-22T01:05:36;101364.52;;;11.90;78.19
86547;BME280;77188;50.862;5.478;2024-03-22T01:06:41;101362.17;;;11.90;78.14
86547;BME280;77188;50.862;5.478;2024-03-22T01:07:45;101360.91;;;11.90;78.27
86547;BME280;77188;50.862;5.478;2024-03-22T01:08:49;101358.65;;;11.91;78.09
86547;BME280;77188;50.862;5.478;2024-03-22T01:09:54;101360.06;;;11.91;78.26
86547;BME280;77188;50.862;5.478;2024-03-22T01:10:58;101355.02;;;11.90;78.08
86547;BME280;77188;50.862;5.478;2024-03-22T01:12:02;101354.85;;;11.90;78.19
86547;BME280;77188;50.862;5.478;2024-03-22T01:13:07;101353.77;;;11.90;78.15
86547;BME280;77188;50.862;5.478;2024-03-22T01:14:11;101350.56;;;11.91;78.14
86547;BME280;77188;50.862;5.478;2024-03-22T01:15:15;101349.80;;;11.92;78.03
86547;BME280;77188;50.862;5.478;2024-03-22T01:16:19;101350.77;;;11.92;78.21
86547;BME280;77188;50.862;5.478;2024-03-22T01:17:23;101348.50;;;11.93;78.18
86547;BME280;77188;50.862;5.478;2024-03-22T01:18:27;101343.86;;;11.93;78.16
86547;BME280;77188;50.862;5.478;2024-03-22T01:19:32;101342.39;;;11.93;78.05
86547;BME280;77188;50.862;5.478;2024-03-22T01:20:37;101344.03;;;11.93;78.18
86547;BME280;77188;50.862;5.478;2024-03-22T01:21:41;101344.58;;;11.93;78.14
86547;BME280;77188;50.862;5.478;2024-03-22T01:22:45;101343.21;;;11.92;78.08
86547;BME280;77188;50.862;5.478;2024-03-22T01:23:49;101338.65;;;11.92;78.14
86547;BME280;77188;50.862;5.478;2024-03-22T01:24:53;101336.71;;;11.92;78.25
86547;BME280;77188;50.862;5.478;2024-03-22T01:25:57;101333.13;;;11.93;78.09
86547;BME280;77188;50.862;5.478;2024-03-22T01:27:01;101336.54;;;11.94;78.04
86547;BME280;77188;50.862;5.478;2024-03-22T01:28:06;101333.02;;;11.94;78.06
86547;BME280;77188;50.862;5.478;2024-03-22T01:29:10;101329.23;;;11.94;77.98
86547;BME280;77188;50.862;5.478;2024-03-22T01:30:14;101327.02;;;11.94;78.11
86547;BME280;77188;50.862;5.478;2024-03-22T01:31:18;101325.90;;;11.93;77.96
86547;BME280;77188;50.862;5.478;2024-03-22T01:32:23;101323.77;;;11.93;78.12
86547;BME280;77188;50.862;5.478;2024-03-22T01:33:27;101324.46;;;11.93;78.21
86547;BME280;77188;50.862;5.478;2024-03-22T01:34:31;101321.86;;;11.92;78.07
86547;BME280;77188;50.862;5.478;2024-03-22T01:35:35;101319.91;;;11.92;78.08
86547;BME280;77188;50.862;5.478;2024-03-22T01:36:39;101323.77;;;11.92;78.13
86547;BME280;77188;50.862;5.478;2024-03-22T01:37:43;101325.73;;;11.93;77.96
86547;BME280;77188;50.862;5.478;2024-03-22T01:38:47;101321.51;;;11.94;78.26
86547;BME280;77188;50.862;5.478;2024-03-22T01:39:52;101319.99;;;11.93;78.24
86547;BME280;77188;50.862;5.478;2024-03-22T01:40:56;101320.87;;;11.93;78.33
86547;BME280;77188;50.862;5.478;2024-03-22T01:42:00;101316.86;;;11.93;78.16
86547;BME280;77188;50.862;5.478;2024-03-22T01:43:04;101311.48;;;11.92;78.33
86547;BME280;77188;50.862;5.478;2024-03-22T01:44:08;101312.00;;;11.91;78.48
86547;BME280;77188;50.862;5.478;2024-03-22T01:45:15;101307.09;;;11.92;78.47
86547;BME280;77188;50.862;5.478;2024-03-22T01:46:19;101299.64;;;11.92;78.41
86547;BME280;77188;50.862;5.478;2024-03-22T01:47:23;101301.69;;;11.93;78.30
86547;BME280;77188;50.862;5.478;2024-03-22T01:48:27;101299.60;;;11.94;78.24
86547;BME280;77188;50.862;5.478;2024-03-22T01:49:31;101299.95;;;11.95;78.21
86547;BME280;77188;50.862;5.478;2024-03-22T01:50:36;101297.91;;;11.95;78.28
86547;BME280;77188;50.862;5.478;2024-03-22T01:51:40;101300.11;;;11.95;78.19
86547;BME280;77188;50.862;5.478;2024-03-22T01:52:45;101301.44;;;11.95;78.29
86547;BME280;77188;50.862;5.478;2024-03-22T01:53:49;101300.35;;;11.95;78.13
86547;BME280;77188;50.862;5.478;2024-03-22T01:54:53;101297.08;;;11.94;78.41
86547;BME280;77188;50.862;5.478;2024-03-22T01:55:58;101293.71;;;11.94;78.40
86547;BME280;77188;50.862;5.478;2024-03-22T01:57:02;101289.11;;;11.95;78.39
86547;BME280;77188;50.862;5.478;2024-03-22T01:58:06;101288.40;;;11.95;78.50
86547;BME280;77188;50.862;5.478;2024-03-22T01:59:11;101285.83;;;11.96;78.43
86547;BME280;77188;50.862;5.478;2024-03-22T02:00:16;101281.59;;;11.96;78.62
86547;BME280;77188;50.862;5.478;2024-03-22T02:01:21;101284.25;;;11.96;78.44
86547;BME280;77188;50.862;5.478;2024-03-22T02:02:25;101282.08;;;11.96;78.24
86547;BME280;77188;50.862;5.478;2024-03-22T02:03:29;101277.89;;;11.96;78.50
86547;BME280;77188;50.862;5.478;2024-03-22T02:04:33;101278.59;;;11.95;78.45
86547;BME280;77188;50.862;5.478;2024-03-22T02:05:38;101277.33;;;11.95;78.63
86547;BME280;77188;50.862;5.478;2024-03-22T02:06:42;101279.54;;;11.95;78.44
86547;BME280;77188;50.862;5.478;2024-03-22T02:07:46;101277.08;;;11.97;78.39
86547;BME280;77188;50.862;5.478;2024-03-22T02:08:50;101277.13;;;11.98;78.36
86547;BME280;77188;50.862;5.478;2024-03-22T02:09:54;101275.94;;;11.98;78.51
86547;BME280;77188;50.862;5.478;2024-03-22T02:11:00;101278.13;;;11.98;78.46
86547;BME280;77188;50.862;5.478;2024-03-22T02:12:05;101277.65;;;11.98;78.47
86547;BME280;77188;50.862;5.478;2024-03-22T02:13:09;101275.77;;;11.98;78.55
86547;BME280;77188;50.862;5.478;2024-03-22T02:14:13;101278.15;;;11.96;78.56
86547;BME280;77188;50.862;5.478;2024-03-22T02:15:17;101278.95;;;11.97;78.54
86547;BME280;77188;50.862;5.478;2024-03-22T02:16:21;101279.05;;;11.97;78.46
86547;BME280;77188;50.862;5.478;2024-03-22T02:17:25;101280.17;;;11.98;78.60
86547;BME280;77188;50.862;5.478;2024-03-22T02:18:29;101280.19;;;11.99;78.47
86547;BME280;77188;50.862;5.478;2024-03-22T02:19:34;101278.16;;;11.99;78.55
86547;BME280;77188;50.862;5.478;2024-03-22T02:20:38;101278.54;;;11.99;78.49
86547;BME280;77188;50.862;5.478;2024-03-22T02:21:42;101277.83;;;11.98;78.62
86547;BME280;77188;50.862;5.478;2024-03-22T02:22:46;101274.38;;;11.98;78.60
86547;BME280;77188;50.862;5.478;2024-03-22T02:23:50;101273.73;;;11.98;78.61
86547;BME280;77188;50.862;5.478;2024-03-22T02:24:54;101274.42;;;11.97;78.54
86547;BME280;77188;50.862;5.478;2024-03-22T02:25:58;101273.65;;;11.97;78.68
86547;BME280;77188;50.862;5.478;2024-03-22T02:27:02;101272.02;;;11.98;78.72
86547;BME280;77188;50.862;5.478;2024-03-22T02:28:07;101269.58;;;11.99;78.52
86547;BME280;77188;50.862;5.478;2024-03-22T02:29:11;101268.58;;;12.00;78.72
86547;BME280;77188;50.862;5.478;2024-03-22T02:30:16;101266.94;;;12.00;78.55
86547;BME280;77188;50.862;5.478;2024-03-22T02:31:20;101264.34;;;12.00;78.69
86547;BME280;77188;50.862;5.478;2024-03-22T02:32:25;101265.35;;;11.99;78.68
86547;BME280;77188;50.862;5.478;2024-03-22T02:33:29;101266.30;;;11.99;78.61
86547;BME280;77188;50.862;5.478;2024-03-22T02:34:33;101261.71;;;11.99;78.73
86547;BME280;77188;50.862;5.478;2024-03-22T02:35:37;101260.02;;;11.97;78.83
86547;BME280;77188;50.862;5.478;2024-03-22T02:36:42;101264.36;;;11.97;78.69
86547;BME280;77188;50.862;5.478;2024-03-22T02:37:46;101259.60;;;11.96;78.80
86547;BME280;77188;50.862;5.478;2024-03-22T02:38:50;101258.89;;;11.96;78.75
86547;BME280;77188;50.862;5.478;2024-03-22T02:39:54;101258.41;;;11.96;78.80
86547;BME280;77188;50.862;5.478;2024-03-22T02:40:59;101258.89;;;11.96;78.96
86547;BME280;77188;50.862;5.478;2024-03-22T02:42:03;101259.10;;;11.95;78.90
86547;BME280;77188;50.862;5.478;2024-03-22T02:43:07;101256.66;;;11.95;78.84
86547;BME280;77188;50.862;5.478;2024-03-22T02:44:11;101255.86;;;11.94;78.96
86547;BME280;77188;50.862;5.478;2024-03-22T02:45:15;101256.65;;;11.94;78.87
86547;BME280;77188;50.862;5.478;2024-03-22T02:46:19;101256.28;;;11.92;79.08
86547;BME280;77188;50.862;5.478;2024-03-22T02:47:23;101255.50;;;11.93;78.95
86547;BME280;77188;50.862;5.478;2024-03-22T02:48:28;101254.49;;;11.93;78.91
86547;BME280;77188;50.862;5.478;2024-03-22T02:49:32;101256.79;;;11.94;78.82
86547;BME280;77188;50.862;5.478;2024-03-22T02:50:37;101251.44;;;11.94;78.85
86547;BME280;77188;50.862;5.478;2024-03-22T02:51:41;101256.63;;;11.93;79.03
86547;BME280;77188;50.862;5.478;2024-03-22T02:52:45;101253.49;;;11.94;78.97
86547;BME280;77188;50.862;5.478;2024-03-22T02:53:49;101251.42;;;11.93;79.09
86547;BME280;77188;50.862;5.478;2024-03-22T02:54:53;101248.36;;;11.93;79.13
86547;BME280;77188;50.862;5.478;2024-03-22T02:56:00;101250.17;;;11.93;78.90
86547;BME280;77188;50.862;5.478;2024-03-22T02:57:05;101246.55;;;11.90;79.09
86547;BME280;77188;50.862;5.478;2024-03-22T02:58:09;101244.76;;;11.91;79.02
86547;BME280;77188;50.862;5.478;2024-03-22T02:59:13;101241.02;;;11.91;78.99
86547;BME280;77188;50.862;5.478;2024-03-22T03:00:18;101243.14;;;11.91;78.99
86547;BME280;77188;50.862;5.478;2024-03-22T03:01:22;101242.52;;;11.92;78.95
86547;BME280;77188;50.862;5.478;2024-03-22T03:02:26;101245.39;;;11.93;78.87
86547;BME280;77188;50.862;5.478;2024-03-22T03:03:30;101240.72;;;11.92;79.11
86547;BME280;77188;50.862;5.478;2024-03-22T03:04:34;101241.98;;;11.92;78.72
86547;BME280;77188;50.862;5.478;2024-03-22T03:05:38;101243.43;;;11.91;78.95
86547;BME280;77188;50.862;5.478;2024-03-22T03:06:44;101241.13;;;11.90;78.88
86547;BME280;77188;50.862;5.478;2024-03-22T03:07:48;101236.02;;;11.90;79.01
86547;BME280;77188;50.862;5.478;2024-03-22T03:08:53;101237.42;;;11.90;78.98
86547;BME280;77188;50.862;5.478;2024-03-22T03:09:57;101238.77;;;11.90;78.85
86547;BME280;77188;50.862;5.478;2024-03-22T03:11:01;101234.38;;;11.90;78.93
86547;BME280;77188;50.862;5.478;2024-03-22T03:12:06;101231.07;;;11.90;78.85
86547;BME280;77188;50.862;5.478;2024-03-22T03:13:10;101233.35;;;11.90;78.88
86547;BME280;77188;50.862;5.478;2024-03-22T03:14:14;101231.04;;;11.89;78.84
86547;BME280;77188;50.862;5.478;2024-03-22T03:15:19;101228.30;;;11.86;78.89
86547;BME280;77188;50.862;5.478;2024-03-22T03:16:23;101229.89;;;11.84;78.85
86547;BME280;77188;50.862;5.478;2024-03-22T03:17:27;101229.11;;;11.82;78.92
86547;BME280;77188;50.862;5.478;2024-03-22T03:18:31;101227.48;;;11.80;79.02
86547;BME280;77188;50.862;5.478;2024-03-22T03:19:35;101225.80;;;11.79;78.95
86547;BME280;77188;50.862;5.478;2024-03-22T03:20:40;101221.36;;;11.77;78.91
86547;BME280;77188;50.862;5.478;2024-03-22T03:21:44;101220.06;;;11.76;79.04
86547;BME280;77188;50.862;5.478;2024-03-22T03:22:48;101218.81;;;11.73;79.23
86547;BME280;77188;50.862;5.478;2024-03-22T03:23:52;101219.53;;;11.71;79.13
86547;BME280;77188;50.862;5.478;2024-03-22T03:24:56;101215.95;;;11.69;79.20
86547;BME280;77188;50.862;5.478;2024-03-22T03:26:00;101214.85;;;11.67;79.32
86547;BME280;77188;50.862;5.478;2024-03-22T03:27:05;101217.52;;;11.64;79.10
86547;BME280;77188;50.862;5.478;2024-03-22T03:28:09;101216.29;;;11.62;79.30
86547;BME280;77188;50.862;5.478;2024-03-22T03:29:13;101214.44;;;11.61;79.32
86547;BME280;77188;50.862;5.478;2024-03-22T03:30:17;101212.98;;;11.59;79.48
86547;BME280;77188;50.862;5.478;2024-03-22T03:31:21;101215.55;;;11.59;79.48
86547;BME280;77188;50.862;5.478;2024-03-22T03:32:25;101213.52;;;11.59;79.61
86547;BME280;77188;50.862;5.478;2024-03-22T03:33:29;101213.31;;;11.58;79.35
86547;BME280;77188;50.862;5.478;2024-03-22T03:34:33;101212.20;;;11.57;79.43
86547;BME280;77188;50.862;5.478;2024-03-22T03:35:37;101209.79;;;11.56;79.62
86547;BME280;77188;50.862;5.478;2024-03-22T03:36:41;101209.61;;;11.55;79.77
86547;BME280;77188;50.862;5.478;2024-03-22T03:37:46;101210.05;;;11.54;79.55
86547;BME280;77188;50.862;5.478;2024-03-22T03:38:50;101210.05;;;11.54;79.49
86547;BME280;77188;50.862;5.478;2024-03-22T03:39:54;101212.71;;;11.53;79.68
86547;BME280;77188;50.862;5.478;2024-03-22T03:40:58;101203.98;;;11.53;79.89
86547;BME280;77188;50.862;5.478;2024-03-22T03:42:02;101206.91;;;11.54;79.94
86547;BME280;77188;50.862;5.478;2024-03-22T03:43:06;101205.84;;;11.54;79.61
86547;BME280;77188;50.862;5.478;2024-03-22T03:44:10;101207.78;;;11.54;79.89
86547;BME280;77188;50.862;5.478;2024-03-22T03:45:14;101203.31;;;11.54;79.66
86547;BME280;77188;50.862;5.478;2024-03-22T03:46:18;101206.61;;;11.54;79.69
86547;BME280;77188;50.862;5.478;2024-03-22T03:47:23;101206.69;;;11.54;79.64
86547;BME280;77188;50.862;5.478;2024-03-22T03:48:27;101202.56;;;11.53;79.89
86547;BME280;77188;50.862;5.478;2024-03-22T03:49:31;101201.79;;;11.53;79.75
86547;BME280;77188;50.862;5.478;2024-03-22T03:50:35;101198.35;;;11.54;79.78
86547;BME280;77188;50.862;5.478;2024-03-22T03:51:39;101197.17;;;11.54;80.06
86547;BME280;77188;50.862;5.478;2024-03-22T03:52:43;101194.84;;;11.54;80.04
86547;BME280;77188;50.862;5.478;2024-03-22T03:53:47;101194.34;;;11.56;80.00
86547;BME280;77188;50.862;5.478;2024-03-22T03:54:51;101197.65;;;11.57;80.06
86547;BME280;77188;50.862;5.478;2024-03-22T03:55:55;101193.58;;;11.57;79.91
86547;BME280;77188;50.862;5.478;2024-03-22T03:57:00;101196.48;;;11.57;79.97
86547;BME280;77188;50.862;5.478;2024-03-22T03:58:04;101188.95;;;11.57;80.05
86547;BME280;77188;50.862;5.478;2024-03-22T03:59:10;101189.02;;;11.57;79.84
86547;BME280;77188;50.862;5.478;2024-03-22T04:00:14;101190.12;;;11.56;79.86
86547;BME280;77188;50.862;5.478;2024-03-22T04:01:18;101185.96;;;11.56;80.08
86547;BME280;77188;50.862;5.478;2024-03-22T04:02:22;101185.81;;;11.57;80.01
86547;BME280;77188;50.862;5.478;2024-03-22T04:03:27;101184.42;;;11.58;79.97
86547;BME280;77188;50.862;5.478;2024-03-22T04:04:31;101181.23;;;11.59;79.89
86547;BME280;77188;50.862;5.478;2024-03-22T04:05:35;101178.95;;;11.58;80.05
86547;BME280;77188;50.862;5.478;2024-03-22T04:06:39;101179.11;;;11.59;79.94
86547;BME280;77188;50.862;5.478;2024-03-22T04:07:46;101173.85;;;11.58;79.98
86547;BME280;77188;50.862;5.478;2024-03-22T04:08:50;101172.35;;;11.58;79.96
86547;BME280;77188;50.862;5.478;2024-03-22T04:09:55;101173.17;;;11.57;79.96
86547;BME280;77188;50.862;5.478;2024-03-22T04:10:59;101169.98;;;11.58;80.10
86547;BME280;77188;50.862;5.478;2024-03-22T04:12:04;101167.87;;;11.58;80.03
86547;BME280;77188;50.862;5.478;2024-03-22T04:13:08;101170.15;;;11.58;80.00
86547;BME280;77188;50.862;5.478;2024-03-22T04:14:12;101166.41;;;11.59;79.93
86547;BME280;77188;50.862;5.478;2024-03-22T04:15:16;101164.29;;;11.59;79.93
86547;BME280;77188;50.862;5.478;2024-03-22T04:16:21;101161.86;;;11.59;79.83
86547;BME280;77188;50.862;5.478;2024-03-22T04:17:25;101158.33;;;11.59;79.97
86547;BME280;77188;50.862;5.478;2024-03-22T04:18:29;101158.02;;;11.59;79.92
86547;BME280;77188;50.862;5.478;2024-03-22T04:19:33;101150.98;;;11.58;79.98
86547;BME280;77188;50.862;5.478;2024-03-22T04:20:37;101154.73;;;11.57;79.93
86547;BME280;77188;50.862;5.478;2024-03-22T04:21:41;101149.86;;;11.57;79.92
86547;BME280;77188;50.862;5.478;2024-03-22T04:22:45;101147.54;;;11.58;79.98
86547;BME280;77188;50.862;5.478;2024-03-22T04:23:52;101146.77;;;11.58;79.92
86547;BME280;77188;50.862;5.478;2024-03-22T04:24:56;101147.25;;;11.59;79.92
86547;BME280;77188;50.862;5.478;2024-03-22T04:26:01;101144.29;;;11.60;79.85
86547;BME280;77188;50.862;5.478;2024-03-22T04:27:06;101138.64;;;11.60;79.71
86547;BME280;77188;50.862;5.478;2024-03-22T04:28:10;101141.62;;;11.60;79.63
86547;BME280;77188;50.862;5.478;2024-03-22T04:29:14;101142.15;;;11.59;79.72
86547;BME280;77188;50.862;5.478;2024-03-22T04:30:19;101146.21;;;11.58;79.74
86547;BME280;77188;50.862;5.478;2024-03-22T04:31:23;101145.42;;;11.58;79.66
86547;BME280;77188;50.862;5.478;2024-03-22T04:32:27;101144.89;;;11.59;79.71
86547;BME280;77188;50.862;5.478;2024-03-22T04:33:32;101139.25;;;11.59;79.73
86547;BME280;77188;50.862;5.478;2024-03-22T04:34:36;101138.30;;;11.59;79.69
86547;BME280;77188;50.862;5.478;2024-03-22T04:35:47;101137.45;;;11.60;79.61
86547;BME280;77188;50.862;5.478;2024-03-22T04:36:51;101138.55;;;11.59;79.65
86547;BME280;77188;50.862;5.478;2024-03-22T04:37:55;101135.13;;;11.58;79.83
86547;BME280;77188;50.862;5.478;2024-03-22T04:39:00;101138.98;;;11.58;79.77
86547;BME280;77188;50.862;5.478;2024-03-22T04:40:05;101138.71;;;11.57;79.69
86547;BME280;77188;50.862;5.478;2024-03-22T04:41:09;101138.44;;;11.58;79.80
86547;BME280;77188;50.862;5.478;2024-03-22T04:42:13;101138.92;;;11.59;79.81
86547;BME280;77188;50.862;5.478;2024-03-22T04:43:19;101137.77;;;11.60;79.65
86547;BME280;77188;50.862;5.478;2024-03-22T04:44:23;101136.38;;;11.60;79.61
86547;BME280;77188;50.862;5.478;2024-03-22T04:45:27;101135.50;;;11.60;79.54
86547;BME280;77188;50.862;5.478;2024-03-22T04:46:32;101132.42;;;11.59;79.70
86547;BME280;77188;50.862;5.478;2024-03-22T04:47:36;101131.30;;;11.58;79.70
86547;BME280;77188;50.862;5.478;2024-03-22T04:48:40;101130.73;;;11.58;79.74
86547;BME280;77188;50.862;5.478;2024-03-22T04:49:44;101131.60;;;11.58;79.91
86547;BME280;77188;50.862;5.478;2024-03-22T04:50:49;101132.33;;;11.59;79.68
86547;BME280;77188;50.862;5.478;2024-03-22T04:51:53;101128.58;;;11.59;79.82
86547;BME280;77188;50.862;5.478;2024-03-22T04:52:57;101129.71;;;11.60;79.70
86547;BME280;77188;50.862;5.478;2024-03-22T04:54:01;101130.34;;;11.61;79.69
86547;BME280;77188;50.862;5.478;2024-03-22T04:55:07;101127.90;;;11.60;79.70
86547;BME280;77188;50.862;5.478;2024-03-22T04:56:11;101124.84;;;11.60;79.64
86547;BME280;77188;50.862;5.478;2024-03-22T04:57:15;101120.55;;;11.59;79.84
86547;BME280;77188;50.862;5.478;2024-03-22T04:58:20;101122.52;;;11.58;79.74
86547;BME280;77188;50.862;5.478;2024-03-22T04:59:24;101122.48;;;11.58;79.92
86547;BME280;77188;50.862;5.478;2024-03-22T05:00:29;101118.48;;;11.57;79.89
86547;BME280;77188;50.862;5.478;2024-03-22T05:01:33;101115.21;;;11.58;79.97
86547;BME280;77188;50.862;5.478;2024-03-22T05:02:37;101120.64;;;11.59;79.97
86547;BME280;77188;50.862;5.478;2024-03-22T05:03:41;101116.96;;;11.59;79.96
86547;BME280;77188;50.862;5.478;2024-03-22T05:04:45;101113.82;;;11.59;79.99
86547;BME280;77188;50.862;5.478;2024-03-22T05:05:52;101115.36;;;11.58;80.02
86547;BME280;77188;50.862;5.478;2024-03-22T05:06:57;101113.23;;;11.58;80.17
86547;BME280;77188;50.862;5.478;2024-03-22T05:08:02;101112.69;;;11.58;80.04
86547;BME280;77188;50.862;5.478;2024-03-22T05:09:06;101111.98;;;11.58;80.23
86547;BME280;77188;50.862;5.478;2024-03-22T05:10:13;101113.74;;;11.60;80.05
86547;BME280;77188;50.862;5.478;2024-03-22T05:11:19;101115.35;;;11.61;80.15
86547;BME280;77188;50.862;5.478;2024-03-22T05:12:23;101114.29;;;11.62;80.10
86547;BME280;77188;50.862;5.478;2024-03-22T05:13:27;101110.63;;;11.63;80.15
86547;BME280;77188;50.862;5.478;2024-03-22T05:14:31;101112.45;;;11.64;80.14
86547;BME280;77188;50.862;5.478;2024-03-22T05:15:35;101107.25;;;11.63;80.14
86547;BME280;77188;50.862;5.478;2024-03-22T05:16:39;101104.21;;;11.64;80.08
86547;BME280;77188;50.862;5.478;2024-03-22T05:17:43;101105.86;;;11.64;80.06
86547;BME280;77188;50.862;5.478;2024-03-22T05:18:47;101102.24;;;11.63;80.14
86547;BME280;77188;50.862;5.478;2024-03-22T05:19:51;101101.14;;;11.64;80.14
86547;BME280;77188;50.862;5.478;2024-03-22T05:20:56;101105.35;;;11.65;80.12
86547;BME280;77188;50.862;5.478;2024-03-22T05:22:00;101105.14;;;11.66;79.97
86547;BME280;77188;50.862;5.478;2024-03-22T05:23:04;101103.98;;;11.67;80.02
86547;BME280;77188;50.862;5.478;2024-03-22T05:24:08;101104.61;;;11.67;80.03
86547;BME280;77188;50.862;5.478;2024-03-22T05:25:12;101099.65;;;11.66;80.12
86547;BME280;77188;50.862;5.478;2024-03-22T05:26:18;101100.58;;;11.66;80.12
86547;BME280;77188;50.862;5.478;2024-03-22T05:27:23;101101.11;;;11.65;80.12
86547;BME280;77188;50.862;5.478;2024-03-22T05:28:28;101096.08;;;11.65;80.17
86547;BME280;77188;50.862;5.478;2024-03-22T05:29:33;101103.48;;;11.67;80.08
86547;BME280;77188;50.862;5.478;2024-03-22T05:30:37;101103.52;;;11.67;80.11
86547;BME280;77188;50.862;5.478;2024-03-22T05:31:48;101101.80;;;11.67;80.07
86547;BME280;77188;50.862;5.478;2024-03-22T05:32:54;101098.98;;;11.68;80.03
86547;BME280;77188;50.862;5.478;2024-03-22T05:33:58;101102.94;;;11.69;79.97
86547;BME280;77188;50.862;5.478;2024-03-22T05:35:02;101108.20;;;11.69;80.00
86547;BME280;77188;50.862;5.478;2024-03-22T05:36:07;101099.52;;;11.70;79.79